createdAt,value
2022-11-22T00:01:34.211Z,1.00
2022-11-22T00:03:21.472Z,1.00
2022-11-22T00:05:09.020Z,1.00
2022-11-22T00:06:56.236Z,1.00
2022-11-22T00:08:43.288Z,1.00
2022-11-22T00:10:30.286Z,1.00
2022-11-22T00:12:17.672Z,1.00
2022-11-22T00:14:04.782Z,1.00
2022-11-22T00:16:00.005Z,1.00
2022-11-22T00:17:47.475Z,1.00
2022-11-22T00:19:35.718Z,1.00
2022-11-22T00:21:22.679Z,1.00
2022-11-22T00:23:10.016Z,1.00
2022-11-22T00:24:57.046Z,1.00
2022-11-22T00:26:44.061Z,1.00
2022-11-22T00:28:31.337Z,1.00
2022-11-22T00:30:18.608Z,1.00
2022-11-22T00:32:05.589Z,1.00
2022-11-22T00:33:52.873Z,1.00
2022-11-22T00:35:39.939Z,1.00
2022-11-22T00:37:27.028Z,1.00
2022-11-22T00:39:14.273Z,1.00
2022-11-22T00:41:01.489Z,1.00
2022-11-22T00:42:48.431Z,1.00
2022-11-22T00:44:35.746Z,99.90
2022-11-22T00:46:22.771Z,1.00
2022-11-22T00:48:09.845Z,1.00
2022-11-22T00:49:57.105Z,1.00
2022-11-22T00:51:44.280Z,1.00
2022-11-22T00:53:31.281Z,1.00
2022-11-22T00:55:18.619Z,1.00
2022-11-22T00:57:05.716Z,1.00
2022-11-22T00:58:52.899Z,1.00
2022-11-22T01:00:40.262Z,1.00
2022-11-22T01:02:27.472Z,1.00
2022-11-22T01:04:14.453Z,1.00
2022-11-22T01:06:02.240Z,1.00
2022-11-22T01:07:49.359Z,1.00
2022-11-22T01:09:36.385Z,1.00
2022-11-22T01:11:23.696Z,1.00
2022-11-22T01:13:12.481Z,1.00
2022-11-22T01:14:59.487Z,1.00
2022-11-22T01:16:47.251Z,1.00
2022-11-22T01:18:34.935Z,1.00
2022-11-22T01:20:23.193Z,1.00
2022-11-22T01:22:10.587Z,1.00
2022-11-22T01:23:57.823Z,1.00
2022-11-22T01:25:45.401Z,1.00
2022-11-22T01:27:32.642Z,1.00
2022-11-22T01:29:19.703Z,1.00
2022-11-22T01:31:07.498Z,1.00
2022-11-22T01:32:55.350Z,1.00
2022-11-22T01:34:42.495Z,1.00
2022-11-22T01:36:29.542Z,1.00
2022-11-22T01:38:17.426Z,1.00
2022-11-22T01:40:05.236Z,1.00
2022-11-22T01:41:52.389Z,1.00
2022-11-22T01:43:39.679Z,1.00
2022-11-22T01:45:41.325Z,1.00
2022-11-22T01:47:28.338Z,1.00
2022-11-22T01:49:32.340Z,1.00
2022-11-22T01:51:26.122Z,1.00
2022-11-22T01:53:21.252Z,1.00
2022-11-22T01:55:13.489Z,1.00
2022-11-22T01:57:11.183Z,1.00
2022-11-22T01:59:11.769Z,1.00
2022-11-22T02:01:14.728Z,1.00
2022-11-22T02:03:10.562Z,1.00
2022-11-22T02:05:05.894Z,1.00
2022-11-22T02:07:06.361Z,1.00
2022-11-22T02:09:11.263Z,1.00
2022-11-22T02:11:03.002Z,1.00
2022-11-22T02:12:55.815Z,1.00
2022-11-22T02:14:46.473Z,1.00
2022-11-22T02:18:59.920Z,1.00
2022-11-22T02:20:48.273Z,1.00
2022-11-22T02:22:50.884Z,1.00
2022-11-22T02:24:51.974Z,1.00
2022-11-22T02:26:40.254Z,1.00
2022-11-22T02:28:36.764Z,1.00
2022-11-22T02:30:30.863Z,1.00
2022-11-22T02:32:19.321Z,1.00
2022-11-22T02:34:07.753Z,1.00
2022-11-22T02:36:04.894Z,1.00
2022-11-22T02:37:58.254Z,1.00
2022-11-22T02:39:48.981Z,1.00
2022-11-22T02:41:47.339Z,1.00
2022-11-22T02:43:45.010Z,1.00
2022-11-22T02:45:43.864Z,1.00
2022-11-22T02:47:32.227Z,1.00
2022-11-22T02:49:21.005Z,1.00
2022-11-22T02:51:17.447Z,1.00
2022-11-22T02:53:13.321Z,1.00
2022-11-22T02:55:03.430Z,1.00
2022-11-22T02:56:51.818Z,1.00
2022-11-22T02:58:40.375Z,1.00
2022-11-22T03:00:35.916Z,1.00
2022-11-22T03:02:23.914Z,1.00
2022-11-22T03:04:25.281Z,1.00
2022-11-22T03:06:13.676Z,1.00
2022-11-22T03:08:01.577Z,1.00
2022-11-22T03:09:53.163Z,1.00
2022-11-22T03:11:40.934Z,1.00
2022-11-22T03:13:28.774Z,1.00
2022-11-22T03:15:16.906Z,1.00
2022-11-22T03:17:04.725Z,1.00
2022-11-22T03:18:55.225Z,1.00
2022-11-22T03:20:43.395Z,1.00
2022-11-22T03:22:31.185Z,1.00
2022-11-22T03:24:20.533Z,1.00
2022-11-22T03:26:12.615Z,1.00
2022-11-22T03:28:00.416Z,1.00
2022-11-22T03:29:47.991Z,1.00
2022-11-22T03:31:36.344Z,1.00
2022-11-22T03:33:24.053Z,1.00
2022-11-22T03:35:11.613Z,1.00
2022-11-22T03:36:59.623Z,1.00
2022-11-22T03:38:47.439Z,1.00
2022-11-22T03:40:35.059Z,1.00
2022-11-22T03:42:23.156Z,5.80
2022-11-22T03:44:10.765Z,8.10
2022-11-22T03:45:58.447Z,8.80
2022-11-22T03:47:46.053Z,12.40
2022-11-22T03:49:34.046Z,13.80
2022-11-22T03:51:24.828Z,18.00
2022-11-22T03:53:13.220Z,24.20
2022-11-22T03:55:00.825Z,24.50
2022-11-22T03:56:48.985Z,32.90
2022-11-22T03:58:37.060Z,32.80
2022-11-22T04:00:28.084Z,29.00
2022-11-22T04:02:17.689Z,31.30
2022-11-22T04:04:16.182Z,29.00
2022-11-22T04:06:04.802Z,29.30
2022-11-22T04:08:01.824Z,32.80
2022-11-22T04:09:50.013Z,37.50
2022-11-22T04:11:38.095Z,37.70
2022-11-22T04:13:49.480Z,40.70
2022-11-22T04:15:38.075Z,41.40
2022-11-22T04:17:52.261Z,43.60
2022-11-22T04:20:07.835Z,39.00
2022-11-22T04:21:56.371Z,39.90
2022-11-22T04:23:46.963Z,42.40
2022-11-22T04:25:37.261Z,37.60
2022-11-22T04:27:25.635Z,40.90
2022-11-22T04:29:12.749Z,48.00
2022-11-22T04:31:18.399Z,42.00
2022-11-22T04:33:06.057Z,40.20
2022-11-22T04:34:53.480Z,42.40
2022-11-22T04:36:40.514Z,40.80
2022-11-22T04:38:28.428Z,42.80
2022-11-22T04:40:15.672Z,40.10
2022-11-22T04:42:21.398Z,41.10
2022-11-22T04:44:29.187Z,49.40
2022-11-22T04:46:17.077Z,44.10
2022-11-22T04:48:04.315Z,45.00
2022-11-22T04:49:51.635Z,45.80
2022-11-22T04:51:57.369Z,47.70
2022-11-22T04:53:45.040Z,52.30
2022-11-22T04:55:32.294Z,53.10
2022-11-22T04:57:19.384Z,59.10
2022-11-22T04:59:06.378Z,57.70
2022-11-22T05:00:54.361Z,59.40
2022-11-22T05:02:41.755Z,58.40
2022-11-22T05:04:28.920Z,54.70
2022-11-22T05:06:16.417Z,49.50
2022-11-22T05:08:04.361Z,53.10
2022-11-22T05:09:51.536Z,55.00
2022-11-22T05:11:38.812Z,53.80
2022-11-22T05:13:33.304Z,48.80
2022-11-22T05:15:20.513Z,54.00
2022-11-22T05:17:11.663Z,59.90
2022-11-22T05:19:00.274Z,71.20
2022-11-22T05:20:47.464Z,66.80
2022-11-22T05:22:54.223Z,67.10
2022-11-22T05:24:41.226Z,63.60
2022-11-22T05:26:33.837Z,63.30
2022-11-22T05:28:21.128Z,64.90
2022-11-22T05:30:08.705Z,59.60
2022-11-22T05:31:55.858Z,60.10
2022-11-22T05:33:45.404Z,52.40
2022-11-22T05:35:32.487Z,56.90
2022-11-22T05:37:19.964Z,58.20
2022-11-22T05:39:07.658Z,62.20
2022-11-22T05:40:54.784Z,57.60
2022-11-22T05:42:42.210Z,53.90
2022-11-22T05:44:29.755Z,55.70
2022-11-22T05:46:24.901Z,54.20
2022-11-22T05:48:12.351Z,57.80
2022-11-22T05:49:59.607Z,59.20
2022-11-22T05:51:47.005Z,54.90
2022-11-22T05:53:35.760Z,54.50
2022-11-22T05:55:23.358Z,53.10
2022-11-22T05:57:11.051Z,56.70
2022-11-22T05:58:58.186Z,54.50
2022-11-22T06:00:45.594Z,60.20
2022-11-22T06:02:33.461Z,57.90
2022-11-22T06:04:21.364Z,57.10
2022-11-22T06:06:10.612Z,53.60
2022-11-22T06:08:02.863Z,58.90
2022-11-22T06:09:50.235Z,54.80
2022-11-22T06:11:37.545Z,56.90
2022-11-22T06:13:24.909Z,54.50
2022-11-22T06:15:11.911Z,55.90
2022-11-22T06:16:59.565Z,55.40
2022-11-22T06:18:46.896Z,48.90
2022-11-22T06:20:34.233Z,57.80
2022-11-22T06:22:21.534Z,62.20
2022-11-22T06:24:09.210Z,64.30
2022-11-22T06:26:01.340Z,66.80
2022-11-22T06:27:48.710Z,64.70
2022-11-22T06:29:35.772Z,64.70
2022-11-22T06:31:25.435Z,65.80
2022-11-22T06:33:12.854Z,71.70
2022-11-22T06:35:01.105Z,99.90
2022-11-22T06:36:48.193Z,99.90
2022-11-22T06:38:36.348Z,60.50
2022-11-22T06:40:23.512Z,35.50
2022-11-22T06:42:10.585Z,21.40
2022-11-22T06:43:57.909Z,12.00
2022-11-22T06:45:45.135Z,8.80
2022-11-22T06:47:32.203Z,5.90
2022-11-22T06:49:19.688Z,1.00
2022-11-22T06:51:10.326Z,1.00
2022-11-22T06:52:57.521Z,1.00
2022-11-22T06:54:44.945Z,23.20
2022-11-22T06:56:37.305Z,6.00
2022-11-22T06:58:26.133Z,1.00
2022-11-22T07:00:14.091Z,1.00
2022-11-22T07:02:06.116Z,1.00
2022-11-22T07:04:01.009Z,1.00
2022-11-22T07:05:51.669Z,1.00
2022-11-22T07:07:39.030Z,1.00
2022-11-22T07:09:26.225Z,1.00
2022-11-22T07:11:20.955Z,1.00
2022-11-22T07:13:08.006Z,1.00
2022-11-22T07:14:55.053Z,1.00
2022-11-22T07:16:43.569Z,1.00
2022-11-22T07:18:30.824Z,1.00
2022-11-22T07:20:17.887Z,1.00
2022-11-22T07:22:05.370Z,1.00
2022-11-22T07:23:54.052Z,1.00
2022-11-22T07:25:47.868Z,1.00
2022-11-22T07:27:35.155Z,1.00
2022-11-22T07:29:22.390Z,1.00
2022-11-22T07:31:11.098Z,1.00
2022-11-22T07:32:58.541Z,1.00
2022-11-22T07:34:45.629Z,1.00
2022-11-22T07:36:32.822Z,1.00
2022-11-22T07:38:20.198Z,1.00
2022-11-22T07:40:08.012Z,1.00
2022-11-22T07:41:55.015Z,1.00
2022-11-22T07:43:43.093Z,1.00
2022-11-22T07:45:30.239Z,1.00
2022-11-22T07:47:22.646Z,1.00
2022-11-22T07:49:10.455Z,1.00
2022-11-22T07:50:57.763Z,1.00
2022-11-22T07:52:44.817Z,1.00
2022-11-22T07:54:32.237Z,1.00
2022-11-22T07:56:19.495Z,1.00
2022-11-22T07:58:06.635Z,1.00
2022-11-22T07:59:54.184Z,1.00
2022-11-22T08:01:41.460Z,1.00
2022-11-22T08:03:29.370Z,1.00
2022-11-22T08:05:17.577Z,1.00
2022-11-22T08:07:04.940Z,1.00
2022-11-22T08:08:54.659Z,1.00
2022-11-22T08:10:46.449Z,1.00
2022-11-22T08:12:33.575Z,1.00
2022-11-22T08:14:20.717Z,1.00
2022-11-22T08:16:12.086Z,1.00
2022-11-22T08:17:59.406Z,1.00
2022-11-22T08:19:46.984Z,1.00
2022-11-22T08:21:34.257Z,1.00
2022-11-22T08:23:21.473Z,1.00
2022-11-22T08:25:12.652Z,1.00
2022-11-22T08:27:00.099Z,1.00
2022-11-22T08:28:47.593Z,1.00
2022-11-22T08:30:34.805Z,1.00
2022-11-22T08:32:22.286Z,1.00
2022-11-22T08:34:11.443Z,1.00
2022-11-22T08:35:58.558Z,1.00
2022-11-22T08:37:46.023Z,1.00
2022-11-22T08:39:33.136Z,1.00
2022-11-22T08:41:20.389Z,1.00
2022-11-22T08:43:07.717Z,1.00
2022-11-22T08:44:55.667Z,1.00
2022-11-22T08:46:42.715Z,1.00
2022-11-22T08:48:30.930Z,1.00
2022-11-22T08:50:18.453Z,1.00
2022-11-22T08:52:05.601Z,1.00
2022-11-22T08:53:53.028Z,1.00
2022-11-22T08:55:40.397Z,1.00
2022-11-22T08:57:27.480Z,1.00
2022-11-22T08:59:15.030Z,1.00
2022-11-22T09:01:11.552Z,1.00
2022-11-22T09:02:58.818Z,1.00
2022-11-22T09:04:46.173Z,1.00
2022-11-22T09:08:44.509Z,1.00
2022-11-22T09:10:35.620Z,1.00
2022-11-22T09:12:22.926Z,1.00
2022-11-22T09:14:10.177Z,1.00
2022-11-22T09:16:03.034Z,99.90
2022-11-22T09:17:50.288Z,1.00
2022-11-22T09:19:37.373Z,99.90
2022-11-22T09:21:24.864Z,99.90
2022-11-22T09:23:12.111Z,1.00
2022-11-22T09:24:59.231Z,1.00
2022-11-22T09:26:46.515Z,99.90
2022-11-22T09:28:33.959Z,99.90
2022-11-22T09:30:21.673Z,99.90
2022-11-22T09:32:10.634Z,99.90
2022-11-22T09:33:58.817Z,99.90
2022-11-22T09:35:45.874Z,99.90
2022-11-22T09:37:33.279Z,99.90
2022-11-22T09:39:22.194Z,99.90
2022-11-22T09:41:31.826Z,99.90
2022-11-22T09:43:53.733Z,99.90
2022-11-22T09:46:11.860Z,99.90
2022-11-22T09:48:36.404Z,99.90
2022-11-22T09:50:51.760Z,99.90
2022-11-22T09:53:03.398Z,99.90
2022-11-22T09:55:02.482Z,99.90
2022-11-22T09:56:54.129Z,99.90
2022-11-22T09:58:49.076Z,99.90
2022-11-22T10:00:36.298Z,99.90
2022-11-22T10:02:39.226Z,99.90
2022-11-22T10:04:41.143Z,99.90
2022-11-22T10:06:33.864Z,99.90
2022-11-22T10:08:47.494Z,99.90
2022-11-22T10:10:41.238Z,99.90
2022-11-22T10:12:46.053Z,99.90
2022-11-22T10:14:36.300Z,99.90
2022-11-22T10:16:39.786Z,99.90
2022-11-22T10:18:32.765Z,99.90
2022-11-22T10:20:20.975Z,99.90
2022-11-22T10:22:13.594Z,99.90
2022-11-22T10:24:01.046Z,99.90
2022-11-22T10:25:57.582Z,99.90
2022-11-22T10:27:54.924Z,99.90
2022-11-22T10:29:56.477Z,99.90
2022-11-22T10:31:43.696Z,99.90
2022-11-22T10:33:39.960Z,99.90
2022-11-22T10:35:48.499Z,99.90
2022-11-22T10:38:03.121Z,99.90
2022-11-22T10:39:56.655Z,99.90
2022-11-22T10:41:53.668Z,99.90
2022-11-22T10:44:13.129Z,99.90
2022-11-22T10:46:12.577Z,99.90
2022-11-22T10:48:05.549Z,99.90
2022-11-22T10:50:03.558Z,99.90
2022-11-22T10:52:14.481Z,99.90
2022-11-22T10:54:03.768Z,99.90
2022-11-22T10:56:05.149Z,99.90
2022-11-22T10:58:14.423Z,99.90
2022-11-22T11:00:25.072Z,99.90
2022-11-22T11:02:53.636Z,99.90
2022-11-22T11:04:43.755Z,99.90
2022-11-22T11:11:09.302Z,99.90
2022-11-22T11:13:00.907Z,99.90
2022-11-22T11:14:53.220Z,99.90
2022-11-22T11:16:41.398Z,99.90
2022-11-22T11:18:36.009Z,99.90
2022-11-22T11:20:28.202Z,99.90
2022-11-22T11:22:51.821Z,99.90
2022-11-22T11:24:37.627Z,99.90
2022-11-22T11:26:29.002Z,99.90
2022-11-22T11:28:22.440Z,99.90
2022-11-22T11:30:12.883Z,99.90
2022-11-22T11:32:13.839Z,99.90
2022-11-22T11:34:23.381Z,99.90
2022-11-22T11:36:12.251Z,99.90
2022-11-22T11:37:59.453Z,99.90
2022-11-22T11:39:48.033Z,99.90
2022-11-22T11:41:41.904Z,99.90
2022-11-22T11:43:30.546Z,99.90
2022-11-22T11:45:33.126Z,99.90
2022-11-22T11:47:34.954Z,99.90
2022-11-22T11:49:25.743Z,99.90
2022-11-22T11:51:35.981Z,99.90
2022-11-22T11:53:26.376Z,99.90
2022-11-22T11:55:17.031Z,99.90
2022-11-22T11:57:07.755Z,99.90
2022-11-22T11:58:57.042Z,99.90
2022-11-22T12:00:44.296Z,99.90
2022-11-22T12:02:46.821Z,99.90
2022-11-22T12:04:44.695Z,99.90
2022-11-22T12:06:33.202Z,99.90
2022-11-22T12:08:32.296Z,99.90
2022-11-22T12:10:37.372Z,99.90
2022-11-22T12:12:31.982Z,99.90
2022-11-22T12:14:27.896Z,99.90
2022-11-22T12:16:31.100Z,99.90
2022-11-22T12:18:43.273Z,99.90
2022-11-22T12:20:54.010Z,99.90
2022-11-22T12:22:50.873Z,99.90
2022-11-22T12:25:09.693Z,99.90
2022-11-22T12:26:58.977Z,99.90
2022-11-22T12:28:47.213Z,99.90
2022-11-22T12:30:35.096Z,99.90
2022-11-22T12:32:33.620Z,99.90
2022-11-22T12:34:45.898Z,99.90
2022-11-22T12:37:03.612Z,99.90
2022-11-22T12:38:52.942Z,99.90
2022-11-22T12:40:43.132Z,99.90
2022-11-22T12:42:44.629Z,99.90
2022-11-22T12:44:43.169Z,99.90
2022-11-22T12:46:42.127Z,99.90
2022-11-22T12:48:49.077Z,99.90
2022-11-22T12:50:44.040Z,99.90
2022-11-22T12:52:55.715Z,99.90
2022-11-22T12:55:03.619Z,99.90
2022-11-22T12:56:55.778Z,99.90
2022-11-22T12:59:10.472Z,99.90
2022-11-22T13:01:06.232Z,99.90
2022-11-22T13:03:04.216Z,99.90
2022-11-22T13:05:18.826Z,99.90
2022-11-22T13:07:17.493Z,99.90
2022-11-22T13:09:10.479Z,99.90
2022-11-22T13:11:04.999Z,99.90
2022-11-22T13:12:54.242Z,99.90
2022-11-22T13:14:48.311Z,99.90
2022-11-22T13:16:35.521Z,99.90
2022-11-22T13:18:29.621Z,99.90
2022-11-22T13:20:23.655Z,99.90
2022-11-22T13:22:32.953Z,99.90
2022-11-22T13:24:48.325Z,99.90
2022-11-22T13:26:48.570Z,99.90
2022-11-22T13:28:39.347Z,99.90
2022-11-22T13:30:29.160Z,99.90
2022-11-22T13:32:20.658Z,99.90
2022-11-22T13:34:25.088Z,99.90
2022-11-22T13:36:27.350Z,99.90
2022-11-22T13:38:16.544Z,99.90
2022-11-22T13:40:11.666Z,99.90
2022-11-22T13:41:58.710Z,99.90
2022-11-22T13:43:53.788Z,99.90
2022-11-22T13:45:48.158Z,99.90
2022-11-22T13:47:38.214Z,99.90
2022-11-22T13:49:48.191Z,99.90
2022-11-22T13:51:51.709Z,99.90
2022-11-22T13:53:42.725Z,99.90
2022-11-22T13:55:37.480Z,99.90
2022-11-22T13:57:38.915Z,99.90
2022-11-22T13:59:26.947Z,99.90
2022-11-22T14:01:46.996Z,99.90
2022-11-22T14:03:42.906Z,99.90
2022-11-22T14:05:39.644Z,99.90
2022-11-22T14:07:37.737Z,99.90
2022-11-22T14:09:50.593Z,99.90
2022-11-22T14:12:03.170Z,99.90
2022-11-22T14:14:06.016Z,99.90
2022-11-22T14:16:10.822Z,99.90
2022-11-22T14:18:03.921Z,99.90
2022-11-22T14:20:11.299Z,99.90
2022-11-22T14:22:29.770Z,99.90
2022-11-22T14:24:34.804Z,99.90
2022-11-22T14:26:55.103Z,99.90
2022-11-22T14:29:13.352Z,99.90
2022-11-22T14:31:08.126Z,99.90
2022-11-22T14:33:05.057Z,99.90
2022-11-22T14:35:04.643Z,99.90
2022-11-22T14:37:15.103Z,99.90
2022-11-22T14:39:41.237Z,99.90
2022-11-22T14:41:28.345Z,99.90
2022-11-22T14:43:36.289Z,1.00
2022-11-22T14:45:37.969Z,1.00
2022-11-22T14:47:25.729Z,1.00
2022-11-22T14:49:38.435Z,1.00
2022-11-22T14:51:32.275Z,1.00
2022-11-22T14:53:41.125Z,1.00
2022-11-22T14:55:32.602Z,1.00
2022-11-22T14:57:23.381Z,1.00
2022-11-22T14:59:38.011Z,1.00
2022-11-22T15:01:48.032Z,1.00
2022-11-22T15:09:11.393Z,1.00
2022-11-22T15:09:14.903Z,1.00
2022-11-22T15:09:19.921Z,1.00
2022-11-22T15:11:28.334Z,1.00
2022-11-22T15:13:37.137Z,1.00
2022-11-22T15:57:44.851Z,14.20
2022-11-22T15:59:41.597Z,19.70
2022-11-22T16:01:29.875Z,21.40
2022-11-22T16:03:22.395Z,16.10
2022-11-22T16:06:10.196Z,32.10
2022-11-22T16:07:38.833Z,42.70
2022-11-22T16:09:44.056Z,52.00
2022-11-22T16:11:35.165Z,47.60
2022-11-22T16:13:22.605Z,51.70
2022-11-22T16:15:36.688Z,62.40
2022-11-22T16:17:29.546Z,91.00
2022-11-22T16:19:22.687Z,99.90
2022-11-22T16:21:15.951Z,99.90
2022-11-22T16:23:15.516Z,66.00
2022-11-22T16:25:22.897Z,32.40
2022-11-22T16:27:15.933Z,30.40
2022-11-22T16:29:48.000Z,26.90
2022-11-22T16:31:36.157Z,45.40
2022-11-22T16:33:24.252Z,60.40
2022-11-22T16:35:29.121Z,72.20
2022-11-22T16:37:34.645Z,83.40
2022-11-22T16:39:26.335Z,86.20
2022-11-22T16:41:26.063Z,89.90
2022-11-22T16:43:24.498Z,92.10
2022-11-22T16:45:20.226Z,94.90
2022-11-22T16:47:15.866Z,95.70
2022-11-22T16:49:18.162Z,99.90
2022-11-22T16:51:07.533Z,99.90
2022-11-22T16:53:01.449Z,99.90
2022-11-22T16:54:51.206Z,99.90
2022-11-22T16:56:38.555Z,99.90
2022-11-22T16:58:25.913Z,99.90
2022-11-22T17:00:16.748Z,99.90
2022-11-22T17:02:10.505Z,99.90
2022-11-22T17:03:58.321Z,99.90
2022-11-22T17:05:46.524Z,99.90
2022-11-22T17:07:37.021Z,99.90
2022-11-22T17:09:24.513Z,99.90
2022-11-22T17:11:13.717Z,99.90
2022-11-22T17:13:01.591Z,99.90
2022-11-22T17:14:50.929Z,99.90
2022-11-22T17:16:38.372Z,99.90
2022-11-22T17:18:25.589Z,99.90
2022-11-22T17:20:12.928Z,99.90
2022-11-22T17:22:01.089Z,99.90
2022-11-22T17:23:49.887Z,99.90
2022-11-22T17:25:37.224Z,99.90
2022-11-22T17:27:25.008Z,99.90
2022-11-22T17:29:34.852Z,99.90
2022-11-22T17:31:22.165Z,99.90
2022-11-22T17:33:11.316Z,99.90
2022-11-22T17:34:59.009Z,99.90
2022-11-22T17:36:46.168Z,99.90
2022-11-22T17:38:34.080Z,99.90
2022-11-22T17:40:21.578Z,99.90
2022-11-22T17:42:09.132Z,99.90
2022-11-22T17:43:57.092Z,99.90
2022-11-22T17:45:45.123Z,99.90
2022-11-22T17:47:32.616Z,99.90
2022-11-22T17:49:20.058Z,99.90
2022-11-22T17:51:09.459Z,99.90
2022-11-22T17:52:56.796Z,99.90
2022-11-22T17:54:44.358Z,99.90
2022-11-22T17:56:33.744Z,99.90
2022-11-22T17:58:20.996Z,99.90
2022-11-22T18:00:09.390Z,99.90
2022-11-22T18:01:56.903Z,99.90
2022-11-22T18:03:45.665Z,99.90
2022-11-22T18:05:36.481Z,99.90
2022-11-22T18:07:24.214Z,99.90
2022-11-22T18:09:11.450Z,99.90
2022-11-22T18:10:59.847Z,99.90
2022-11-22T18:13:19.835Z,99.90
2022-11-22T18:15:01.809Z,99.90
2022-11-22T18:16:49.484Z,99.90
2022-11-22T18:18:56.278Z,99.90
2022-11-22T18:20:48.722Z,99.90
2022-11-22T18:22:36.425Z,99.90
2022-11-22T18:24:24.204Z,99.90
2022-11-22T18:28:21.975Z,99.90
2022-11-22T18:30:10.443Z,99.90
2022-11-22T18:31:57.963Z,99.90
2022-11-22T18:33:45.503Z,99.90
2022-11-22T18:35:33.785Z,99.90
2022-11-22T18:37:21.358Z,99.90
2022-11-22T18:39:09.356Z,99.90
2022-11-22T18:41:00.199Z,99.90
2022-11-22T18:42:50.429Z,99.90
2022-11-22T18:44:37.846Z,99.90
2022-11-22T18:46:25.833Z,99.90
2022-11-22T18:48:14.021Z,99.90
2022-11-22T18:50:01.596Z,99.90
2022-11-22T18:51:49.424Z,99.90
2022-11-22T18:53:38.761Z,99.90
2022-11-22T18:55:27.172Z,99.90
2022-11-22T18:57:14.484Z,99.90
2022-11-22T18:59:01.933Z,99.90
2022-11-22T19:00:49.547Z,99.90
2022-11-22T19:02:37.130Z,99.90
2022-11-22T19:04:24.486Z,99.90
2022-11-22T19:06:17.839Z,99.90
2022-11-22T19:08:06.825Z,99.90
2022-11-22T19:09:54.891Z,99.90
2022-11-22T19:11:42.390Z,99.90
2022-11-22T19:13:33.131Z,99.90
2022-11-22T19:15:21.248Z,99.90
2022-11-22T19:17:08.925Z,99.90
2022-11-22T19:18:57.147Z,99.90
2022-11-22T19:20:54.947Z,99.90
2022-11-22T19:22:42.925Z,99.90
2022-11-22T19:24:30.687Z,99.90
2022-11-22T19:26:20.736Z,99.90
2022-11-22T19:28:08.213Z,99.90
2022-11-22T19:29:55.641Z,99.90
2022-11-22T19:31:45.348Z,99.90
2022-11-22T19:33:32.978Z,99.90
2022-11-22T19:35:20.857Z,99.90
2022-11-22T19:37:08.297Z,99.90
2022-11-22T19:38:56.603Z,99.90
2022-11-22T19:40:43.786Z,97.60
2022-11-22T19:42:33.670Z,98.10
2022-11-22T19:44:22.016Z,91.50
2022-11-22T19:46:09.705Z,85.80
2022-11-22T19:47:57.144Z,84.90
2022-11-22T19:49:47.990Z,89.20
2022-11-22T19:51:36.375Z,90.40
2022-11-22T19:53:24.183Z,88.50
2022-11-22T19:55:11.506Z,83.60
2022-11-22T19:56:59.019Z,82.40
2022-11-22T19:58:54.748Z,74.40
2022-11-22T20:00:42.341Z,72.50
2022-11-22T20:02:29.569Z,62.20
2022-11-22T20:04:17.355Z,51.70
2022-11-22T20:06:08.607Z,45.70
2022-11-22T20:07:56.317Z,49.90
2022-11-22T20:09:43.467Z,42.00
2022-11-22T20:11:30.859Z,40.00
2022-11-22T20:13:18.104Z,34.50
2022-11-22T20:15:06.287Z,32.80
2022-11-22T20:16:53.802Z,28.90
2022-11-22T20:18:41.657Z,84.10
2022-11-22T20:20:28.682Z,68.40
2022-11-22T20:22:16.088Z,30.70
2022-11-22T20:24:04.503Z,15.10
2022-11-22T20:25:52.198Z,6.00
2022-11-22T20:27:39.499Z,5.90
2022-11-22T20:29:27.877Z,1.00
2022-11-22T20:31:17.564Z,3.50
2022-11-22T20:33:05.009Z,11.90
2022-11-22T20:34:52.176Z,14.40
2022-11-22T20:36:39.340Z,18.00
2022-11-22T20:38:26.711Z,19.40
2022-11-22T20:40:14.175Z,24.10
2022-11-22T20:42:32.663Z,26.70
2022-11-22T20:44:13.810Z,28.40
2022-11-22T20:46:02.556Z,34.10
2022-11-22T20:47:49.653Z,38.20
2022-11-22T20:49:39.873Z,36.90
2022-11-22T20:51:31.507Z,33.80
2022-11-22T20:53:18.668Z,32.60
2022-11-22T20:55:06.993Z,27.50
2022-11-22T20:56:54.269Z,25.00
2022-11-22T20:58:42.408Z,24.40
2022-11-22T21:00:29.956Z,25.10
2022-11-22T21:02:17.101Z,23.70
2022-11-22T21:04:04.269Z,24.10
2022-11-22T21:05:54.280Z,28.30
2022-11-22T21:07:42.943Z,27.90
2022-11-22T21:09:30.066Z,28.80
2022-11-22T21:11:27.218Z,26.10
2022-11-22T21:13:14.844Z,23.80
2022-11-22T21:15:02.684Z,26.00
2022-11-22T21:16:50.086Z,34.90
2022-11-22T21:18:37.472Z,37.90
2022-11-22T21:20:24.713Z,45.90
2022-11-22T21:22:12.268Z,50.60
2022-11-22T21:24:02.113Z,59.30
2022-11-22T21:25:50.560Z,63.90
2022-11-22T21:27:40.576Z,72.50
2022-11-22T21:29:27.876Z,72.90
2022-11-22T21:31:15.390Z,82.30
2022-11-22T21:33:03.132Z,83.10
2022-11-22T21:34:53.764Z,85.40
2022-11-22T21:36:41.028Z,83.60
2022-11-22T21:38:31.346Z,85.10
2022-11-22T21:40:19.190Z,82.50
2022-11-22T21:42:06.412Z,81.90
2022-11-22T21:43:57.106Z,85.90
2022-11-22T21:45:44.773Z,90.50
2022-11-22T21:47:34.300Z,91.00
2022-11-22T21:49:22.287Z,90.70
2022-11-22T21:51:09.899Z,91.90
2022-11-22T21:52:57.324Z,92.10
2022-11-22T21:54:44.969Z,92.00
2022-11-22T21:56:32.968Z,93.20
2022-11-22T21:58:20.959Z,92.50
2022-11-22T22:00:09.594Z,91.80
2022-11-22T22:01:56.824Z,85.90
2022-11-22T22:03:43.883Z,84.90
2022-11-22T22:05:31.717Z,93.30
2022-11-22T22:07:44.702Z,91.30
2022-11-22T22:09:25.807Z,92.80
2022-11-22T22:11:13.186Z,93.90
2022-11-22T22:13:00.193Z,95.00
2022-11-22T22:14:47.439Z,95.70
2022-11-22T22:16:34.986Z,95.80
2022-11-22T22:18:22.022Z,97.80
2022-11-22T22:20:09.245Z,97.50
2022-11-22T22:21:56.640Z,98.30
2022-11-22T22:23:44.570Z,99.80
2022-11-22T22:25:32.220Z,99.40
2022-11-22T22:27:19.552Z,98.30
2022-11-22T22:29:06.637Z,96.80
2022-11-22T22:31:01.449Z,96.60
2022-11-22T22:32:48.778Z,97.00
2022-11-22T22:34:38.736Z,98.70
2022-11-22T22:36:27.047Z,95.80
2022-11-22T22:38:14.397Z,99.30
2022-11-22T22:40:02.418Z,99.90
2022-11-22T22:41:49.370Z,99.90
2022-11-22T22:43:39.045Z,99.90
2022-11-22T22:45:26.077Z,99.90
2022-11-22T22:47:13.677Z,99.90
2022-11-22T22:49:01.019Z,99.90
2022-11-22T22:50:48.224Z,99.70
2022-11-22T22:52:35.254Z,99.60
2022-11-22T22:54:22.652Z,95.70
2022-11-22T22:56:11.041Z,92.90
2022-11-22T22:58:00.414Z,92.80
2022-11-22T22:59:47.687Z,93.30
2022-11-22T23:01:34.833Z,95.10
2022-11-22T23:03:21.887Z,95.80
2022-11-22T23:05:09.324Z,95.20
2022-11-22T23:06:56.371Z,94.90
2022-11-22T23:08:48.858Z,96.00
2022-11-22T23:10:36.094Z,93.10
2022-11-22T23:12:23.110Z,90.00
2022-11-22T23:14:14.523Z,88.30
2022-11-22T23:16:02.403Z,88.50
2022-11-22T23:17:49.396Z,84.70
2022-11-22T23:19:36.513Z,82.00
2022-11-22T23:21:23.795Z,76.30
2022-11-22T23:23:10.911Z,72.20
2022-11-22T23:24:57.871Z,71.50
2022-11-22T23:26:45.321Z,67.80
2022-11-22T23:28:33.252Z,61.80
2022-11-22T23:30:20.167Z,58.60
2022-11-22T23:32:07.472Z,60.20
2022-11-22T23:33:54.592Z,53.20
2022-11-22T23:35:41.717Z,46.60
2022-11-22T23:37:29.124Z,41.80
2022-11-22T23:39:16.392Z,42.20
2022-11-22T23:41:04.162Z,42.80
2022-11-22T23:42:51.335Z,42.70
2022-11-22T23:44:38.464Z,36.00
2022-11-22T23:46:28.821Z,35.40
2022-11-22T23:48:16.193Z,29.00
2022-11-22T23:50:03.700Z,24.00
2022-11-22T23:51:50.867Z,18.90
2022-11-22T23:53:38.770Z,14.60
2022-11-22T23:55:25.869Z,12.80
2022-11-22T23:57:12.845Z,10.30
2022-11-22T23:59:01.118Z,1.70
